Monticello, Virginia
Current Conditions -  °F | °C
As of 4:53 AM on Saturday 25 Oct 2014 (Local Time) from KCHO Reporting Station
Clear Clear  
Wind Chill: 45°   Ceiling: Unl
Heat Index: 48°   Visibility: 10mi
Dew Point: 33°   Wind: 6mph
Humidity: 56%   Direction: 240°WSW
Pressure: 29.97"   Gusts: NA
Location:  38.025°N, 78.4761°W
Report Text: KCHO 250853Z AUTO 24005KT 10SM CLR 09/01 A2997 RMK AO2 SLP145 T00890006 50001
Loading
Personal Weather Stations






























Interactive Weather Map
Tropical Storm Tracking
New forecast layout! Learn more

10-Day Weather Forecast

Advertisements
Track Severe Weather on mobile